sensor_id;sensor_type;location;lat;lon;timestamp;temperature;humidity
8067;DHT22;4076;48.076;9.118;2024-03-22T00:00:12;6.40;99.90
8067;DHT22;4076;48.076;9.118;2024-03-22T00:02:38;6.30;99.90
8067;DHT22;4076;48.076;9.118;2024-03-22T00:05:04;6.20;99.90
8067;DHT22;4076;48.076;9.118;2024-03-22T00:07:30;6.20;99.90
8067;DHT22;4076;48.076;9.118;2024-03-22T00:09:56;6.10;99.90
8067;DHT22;4076;48.076;9.118;2024-03-22T00:12:22;6.00;99.90
8067;DHT22;4076;48.076;9.118;2024-03-22T00:14:48;6.00;99.90
8067;DHT22;4076;48.076;9.118;2024-03-22T00:17:13;6.00;99.90
8067;DHT22;4076;48.076;9.118;2024-03-22T00:19:39;6.00;99.90
8067;DHT22;4076;48.076;9.118;2024-03-22T00:22:04;6.00;99.90
8067;DHT22;4076;48.076;9.118;2024-03-22T00:24:30;6.00;99.90
8067;DHT22;4076;48.076;9.118;2024-03-22T00:26:56;6.00;99.90
8067;DHT22;4076;48.076;9.118;2024-03-22T00:29:21;5.90;99.90
8067;DHT22;4076;48.076;9.118;2024-03-22T00:31:47;5.80;99.90
8067;DHT22;4076;48.076;9.118;2024-03-22T00:34:12;5.70;99.90
8067;DHT22;4076;48.076;9.118;2024-03-22T00:36:38;5.60;99.90
8067;DHT22;4076;48.076;9.118;2024-03-22T00:39:03;5.50;99.90
8067;DHT22;4076;48.076;9.118;2024-03-22T00:41:29;5.40;99.90
8067;DHT22;4076;48.076;9.118;2024-03-22T00:43:54;5.40;99.90
8067;DHT22;4076;48.076;9.118;2024-03-22T00:46:20;5.40;99.90
8067;DHT22;4076;48.076;9.118;2024-03-22T00:48:45;5.40;99.90
8067;DHT22;4076;48.076;9.118;2024-03-22T00:51:11;5.30;99.90
8067;DHT22;4076;48.076;9.118;2024-03-22T00:53:36;5.30;99.90
8067;DHT22;4076;48.076;9.118;2024-03-22T00:56:02;5.20;99.90
8067;DHT22;4076;48.076;9.118;2024-03-22T00:58:28;5.20;99.90
8067;DHT22;4076;48.076;9.118;2024-03-22T01:00:54;5.20;99.90
8067;DHT22;4076;48.076;9.118;2024-03-22T01:03:20;5.20;99.90
8067;DHT22;4076;48.076;9.118;2024-03-22T01:05:46;5.20;99.90
8067;DHT22;4076;48.076;9.118;2024-03-22T01:08:11;5.20;99.90
8067;DHT22;4076;48.076;9.118;2024-03-22T01:10:37;5.20;99.90
8067;DHT22;4076;48.076;9.118;2024-03-22T01:13:03;5.20;99.90
8067;DHT22;4076;48.076;9.118;2024-03-22T01:15:28;5.20;99.90
8067;DHT22;4076;48.076;9.118;2024-03-22T01:17:54;5.20;99.90
8067;DHT22;4076;48.076;9.118;2024-03-22T01:20:19;5.20;99.90
8067;DHT22;4076;48.076;9.118;2024-03-22T01:22:45;5.20;99.90
8067;DHT22;4076;48.076;9.118;2024-03-22T01:25:11;5.10;99.90
8067;DHT22;4076;48.076;9.118;2024-03-22T01:27:36;5.10;99.90
8067;DHT22;4076;48.076;9.118;2024-03-22T01:30:02;5.20;99.90
8067;DHT22;4076;48.076;9.118;2024-03-22T01:32:27;5.20;99.90
8067;DHT22;4076;48.076;9.118;2024-03-22T01:34:53;5.20;99.90
8067;DHT22;4076;48.076;9.118;2024-03-22T01:37:18;5.20;99.90
8067;DHT22;4076;48.076;9.118;2024-03-22T01:39:44;5.20;99.90
8067;DHT22;4076;48.076;9.118;2024-03-22T01:42:09;5.20;99.90
8067;DHT22;4076;48.076;9.118;2024-03-22T01:44:35;5.20;99.90
8067;DHT22;4076;48.076;9.118;2024-03-22T01:47:01;5.20;99.90
8067;DHT22;4076;48.076;9.118;2024-03-22T01:49:27;5.10;99.90
8067;DHT22;4076;48.076;9.118;2024-03-22T01:51:53;5.00;99.90
8067;DHT22;4076;48.076;9.118;2024-03-22T01:54:19;4.90;99.90
8067;DHT22;4076;48.076;9.118;2024-03-22T01:56:45;4.80;99.90
8067;DHT22;4076;48.076;9.118;2024-03-22T01:59:12;4.70;99.90
8067;DHT22;4076;48.076;9.118;2024-03-22T02:01:38;4.70;99.90
8067;DHT22;4076;48.076;9.118;2024-03-22T02:04:03;4.60;99.90
8067;DHT22;4076;48.076;9.118;2024-03-22T02:06:29;4.60;99.90
8067;DHT22;4076;48.076;9.118;2024-03-22T02:08:56;4.60;99.90
8067;DHT22;4076;48.076;9.118;2024-03-22T02:11:21;4.60;99.90
8067;DHT22;4076;48.076;9.118;2024-03-22T02:13:47;4.60;99.90
8067;DHT22;4076;48.076;9.118;2024-03-22T02:16:13;4.60;99.90
8067;DHT22;4076;48.076;9.118;2024-03-22T02:18:38;4.60;99.90
8067;DHT22;4076;48.076;9.118;2024-03-22T02:21:04;4.60;99.90
8067;DHT22;4076;48.076;9.118;2024-03-22T02:23:40;4.60;99.90
8067;DHT22;4076;48.076;9.118;2024-03-22T02:26:06;4.60;99.90
8067;DHT22;4076;48.076;9.118;2024-03-22T02:28:33;4.60;99.90
8067;DHT22;4076;48.076;9.118;2024-03-22T02:30:59;4.50;99.90
8067;DHT22;4076;48.076;9.118;2024-03-22T02:33:25;4.50;99.90
8067;DHT22;4076;48.076;9.118;2024-03-22T02:35:51;4.40;99.90
8067;DHT22;4076;48.076;9.118;2024-03-22T02:38:17;4.40;99.90
8067;DHT22;4076;48.076;9.118;2024-03-22T02:40:43;4.40;99.90
8067;DHT22;4076;48.076;9.118;2024-03-22T02:43:09;4.40;99.90
8067;DHT22;4076;48.076;9.118;2024-03-22T02:45:34;4.50;99.90
8067;DHT22;4076;48.076;9.118;2024-03-22T02:48:00;4.50;99.90
8067;DHT22;4076;48.076;9.118;2024-03-22T02:50:25;4.50;99.90
8067;DHT22;4076;48.076;9.118;2024-03-22T02:52:51;4.50;99.90
8067;DHT22;4076;48.076;9.118;2024-03-22T02:55:17;4.60;99.90
8067;DHT22;4076;48.076;9.118;2024-03-22T02:57:42;4.50;99.90
8067;DHT22;4076;48.076;9.118;2024-03-22T03:00:08;4.50;99.90
8067;DHT22;4076;48.076;9.118;2024-03-22T03:02:34;4.50;99.90
8067;DHT22;4076;48.076;9.118;2024-03-22T03:04:59;4.40;99.90
8067;DHT22;4076;48.076;9.118;2024-03-22T03:07:25;4.40;99.90
8067;DHT22;4076;48.076;9.118;2024-03-22T03:09:51;4.30;99.90
8067;DHT22;4076;48.076;9.118;2024-03-22T03:12:16;4.20;99.90
8067;DHT22;4076;48.076;9.118;2024-03-22T03:14:42;4.10;99.90
8067;DHT22;4076;48.076;9.118;2024-03-22T03:17:07;4.10;99.90
8067;DHT22;4076;48.076;9.118;2024-03-22T03:19:33;4.00;99.90
8067;DHT22;4076;48.076;9.118;2024-03-22T03:21:59;3.90;99.90
8067;DHT22;4076;48.076;9.118;2024-03-22T03:24:24;3.90;99.90
8067;DHT22;4076;48.076;9.118;2024-03-22T03:26:50;3.90;99.90
8067;DHT22;4076;48.076;9.118;2024-03-22T03:29:15;3.90;99.90
8067;DHT22;4076;48.076;9.118;2024-03-22T03:31:41;3.80;99.90
8067;DHT22;4076;48.076;9.118;2024-03-22T03:34:06;3.80;99.90
8067;DHT22;4076;48.076;9.118;2024-03-22T03:36:32;3.80;99.90
8067;DHT22;4076;48.076;9.118;2024-03-22T03:38:57;3.80;99.90
8067;DHT22;4076;48.076;9.118;2024-03-22T03:41:23;3.80;99.90
8067;DHT22;4076;48.076;9.118;2024-03-22T03:43:48;3.70;99.90
8067;DHT22;4076;48.076;9.118;2024-03-22T03:46:14;3.70;99.90
8067;DHT22;4076;48.076;9.118;2024-03-22T03:48:39;3.60;99.90
8067;DHT22;4076;48.076;9.118;2024-03-22T03:51:05;3.50;99.90
8067;DHT22;4076;48.076;9.118;2024-03-22T03:53:30;3.50;99.90
8067;DHT22;4076;48.076;9.118;2024-03-22T03:55:56;3.60;99.90
8067;DHT22;4076;48.076;9.118;2024-03-22T03:58:22;3.60;99.90
8067;DHT22;4076;48.076;9.118;2024-03-22T04:00:47;3.70;99.90
8067;DHT22;4076;48.076;9.118;2024-03-22T04:03:13;3.70;99.90
8067;DHT22;4076;48.076;9.118;2024-03-22T04:05:39;3.80;99.90
8067;DHT22;4076;48.076;9.118;2024-03-22T04:08:05;3.70;99.90
8067;DHT22;4076;48.076;9.118;2024-03-22T04:10:31;3.70;99.90
8067;DHT22;4076;48.076;9.118;2024-03-22T04:12:57;3.80;99.90
8067;DHT22;4076;48.076;9.118;2024-03-22T04:15:22;3.80;99.90
8067;DHT22;4076;48.076;9.118;2024-03-22T04:17:48;3.70;99.90
8067;DHT22;4076;48.076;9.118;2024-03-22T04:20:13;3.80;99.90
8067;DHT22;4076;48.076;9.118;2024-03-22T04:22:39;3.90;99.90
8067;DHT22;4076;48.076;9.118;2024-03-22T04:25:05;3.90;99.90
8067;DHT22;4076;48.076;9.118;2024-03-22T04:27:30;3.90;99.90
8067;DHT22;4076;48.076;9.118;2024-03-22T04:29:56;3.90;99.90
8067;DHT22;4076;48.076;9.118;2024-03-22T04:32:22;3.90;99.90
8067;DHT22;4076;48.076;9.118;2024-03-22T04:34:47;4.00;99.90
8067;DHT22;4076;48.076;9.118;2024-03-22T04:37:13;4.00;99.90
8067;DHT22;4076;48.076;9.118;2024-03-22T04:39:40;4.00;99.90
8067;DHT22;4076;48.076;9.118;2024-03-22T04:42:06;4.10;99.90
8067;DHT22;4076;48.076;9.118;2024-03-22T04:44:32;4.10;99.90
8067;DHT22;4076;48.076;9.118;2024-03-22T04:46:57;4.20;99.90
8067;DHT22;4076;48.076;9.118;2024-03-22T04:49:23;4.20;99.90
8067;DHT22;4076;48.076;9.118;2024-03-22T04:51:49;4.20;99.90
8067;DHT22;4076;48.076;9.118;2024-03-22T04:54:14;4.20;99.90
8067;DHT22;4076;48.076;9.118;2024-03-22T04:56:40;4.20;99.90
8067;DHT22;4076;48.076;9.118;2024-03-22T04:59:05;4.20;99.90
8067;DHT22;4076;48.076;9.118;2024-03-22T05:01:31;4.20;99.90
8067;DHT22;4076;48.076;9.118;2024-03-22T05:03:56;4.30;99.90
8067;DHT22;4076;48.076;9.118;2024-03-22T05:06:22;4.30;99.90
8067;DHT22;4076;48.076;9.118;2024-03-22T05:08:48;4.30;99.90
8067;DHT22;4076;48.076;9.118;2024-03-22T05:11:13;4.30;99.90
8067;DHT22;4076;48.076;9.118;2024-03-22T05:13:39;4.20;99.90
8067;DHT22;4076;48.076;9.118;2024-03-22T05:16:06;4.20;99.90
8067;DHT22;4076;48.076;9.118;2024-03-22T05:18:31;4.20;99.90
8067;DHT22;4076;48.076;9.118;2024-03-22T05:20:57;4.20;99.90
8067;DHT22;4076;48.076;9.118;2024-03-22T05:23:22;4.20;99.90
8067;DHT22;4076;48.076;9.118;2024-03-22T05:25:48;4.20;99.90
8067;DHT22;4076;48.076;9.118;2024-03-22T05:28:14;4.30;99.90
8067;DHT22;4076;48.076;9.118;2024-03-22T05:30:39;4.30;99.90
8067;DHT22;4076;48.076;9.118;2024-03-22T05:33:05;4.40;99.90
8067;DHT22;4076;48.076;9.118;2024-03-22T05:35:30;4.40;99.90
8067;DHT22;4076;48.076;9.118;2024-03-22T05:37:56;4.40;99.90
8067;DHT22;4076;48.076;9.118;2024-03-22T05:40:21;4.50;99.90
8067;DHT22;4076;48.076;9.118;2024-03-22T05:42:47;4.50;99.90
8067;DHT22;4076;48.076;9.118;2024-03-22T05:45:13;4.60;99.90
8067;DHT22;4076;48.076;9.118;2024-03-22T05:47:38;4.70;99.90
8067;DHT22;4076;48.076;9.118;2024-03-22T05:50:04;4.70;99.90
8067;DHT22;4076;48.076;9.118;2024-03-22T05:52:33;4.70;99.90
8067;DHT22;4076;48.076;9.118;2024-03-22T05:54:58;4.80;99.90
8067;DHT22;4076;48.076;9.118;2024-03-22T05:57:24;4.80;99.90
8067;DHT22;4076;48.076;9.118;2024-03-22T05:59:49;4.90;99.90
8067;DHT22;4076;48.076;9.118;2024-03-22T06:02:15;5.00;99.90
8067;DHT22;4076;48.076;9.118;2024-03-22T06:04:41;5.10;99.90
8067;DHT22;4076;48.076;9.118;2024-03-22T06:07:06;5.10;99.90
8067;DHT22;4076;48.076;9.118;2024-03-22T06:09:32;5.20;99.90
8067;DHT22;4076;48.076;9.118;2024-03-22T06:12:20;5.30;99.90
8067;DHT22;4076;48.076;9.118;2024-03-22T06:14:47;5.40;99.90
8067;DHT22;4076;48.076;9.118;2024-03-22T06:17:14;5.60;99.90
8067;DHT22;4076;48.076;9.118;2024-03-22T06:19:40;5.70;99.90
8067;DHT22;4076;48.076;9.118;2024-03-22T06:22:06;5.90;99.90
8067;DHT22;4076;48.076;9.118;2024-03-22T06:24:31;6.00;99.90
8067;DHT22;4076;48.076;9.118;2024-03-22T06:26:57;6.20;99.90
8067;DHT22;4076;48.076;9.118;2024-03-22T06:29:22;6.30;99.90
8067;DHT22;4076;48.076;9.118;2024-03-22T06:31:48;6.50;99.90
8067;DHT22;4076;48.076;9.118;2024-03-22T06:34:15;6.60;99.90
8067;DHT22;4076;48.076;9.118;2024-03-22T06:36:41;6.70;99.90
8067;DHT22;4076;48.076;9.118;2024-03-22T06:39:07;6.90;99.90
8067;DHT22;4076;48.076;9.118;2024-03-22T06:41:34;7.20;99.90
8067;DHT22;4076;48.076;9.118;2024-03-22T06:44:00;7.70;99.90
8067;DHT22;4076;48.076;9.118;2024-03-22T06:46:26;8.10;99.90
8067;DHT22;4076;48.076;9.118;2024-03-22T06:48:52;8.40;99.90
8067;DHT22;4076;48.076;9.118;2024-03-22T06:51:17;9.10;99.90
8067;DHT22;4076;48.076;9.118;2024-03-22T06:53:43;9.80;99.90
8067;DHT22;4076;48.076;9.118;2024-03-22T06:56:08;10.40;99.90
8067;DHT22;4076;48.076;9.118;2024-03-22T06:58:35;10.90;99.90
8067;DHT22;4076;48.076;9.118;2024-03-22T07:01:02;11.30;99.90
8067;DHT22;4076;48.076;9.118;2024-03-22T07:03:27;12.10;99.90
8067;DHT22;4076;48.076;9.118;2024-03-22T07:05:53;12.50;97.40
8067;DHT22;4076;48.076;9.118;2024-03-22T07:08:18;12.80;95.30
8067;DHT22;4076;48.076;9.118;2024-03-22T07:10:44;13.60;91.30
8067;DHT22;4076;48.076;9.118;2024-03-22T07:13:10;15.50;81.70
8067;DHT22;4076;48.076;9.118;2024-03-22T07:15:36;17.60;65.70
8067;DHT22;4076;48.076;9.118;2024-03-22T07:18:02;19.40;59.10
8067;DHT22;4076;48.076;9.118;2024-03-22T07:20:28;20.60;52.40
8067;DHT22;4076;48.076;9.118;2024-03-22T07:22:54;21.40;49.50
8067;DHT22;4076;48.076;9.118;2024-03-22T07:25:19;22.30;49.60
8067;DHT22;4076;48.076;9.118;2024-03-22T07:27:45;23.10;46.00
8067;DHT22;4076;48.076;9.118;2024-03-22T07:30:11;24.10;43.70
8067;DHT22;4076;48.076;9.118;2024-03-22T07:32:37;24.50;41.90
8067;DHT22;4076;48.076;9.118;2024-03-22T07:35:03;25.20;40.80
8067;DHT22;4076;48.076;9.118;2024-03-22T07:37:29;26.40;39.50
8067;DHT22;4076;48.076;9.118;2024-03-22T07:39:54;27.40;37.40
8067;DHT22;4076;48.076;9.118;2024-03-22T07:42:20;28.30;35.80
8067;DHT22;4076;48.076;9.118;2024-03-22T07:44:46;29.20;34.50
8067;DHT22;4076;48.076;9.118;2024-03-22T07:47:12;29.70;34.50
8067;DHT22;4076;48.076;9.118;2024-03-22T07:49:37;30.00;32.90
8067;DHT22;4076;48.076;9.118;2024-03-22T07:52:03;30.00;32.50
8067;DHT22;4076;48.076;9.118;2024-03-22T07:54:29;30.10;31.80
8067;DHT22;4076;48.076;9.118;2024-03-22T07:56:55;30.30;31.70
8067;DHT22;4076;48.076;9.118;2024-03-22T07:59:20;30.70;31.80
8067;DHT22;4076;48.076;9.118;2024-03-22T08:01:46;31.10;31.40
8067;DHT22;4076;48.076;9.118;2024-03-22T08:04:12;32.00;30.30
8067;DHT22;4076;48.076;9.118;2024-03-22T08:06:37;32.80;30.20
8067;DHT22;4076;48.076;9.118;2024-03-22T08:09:03;33.20;31.80
8067;DHT22;4076;48.076;9.118;2024-03-22T08:11:28;33.30;33.40
8067;DHT22;4076;48.076;9.118;2024-03-22T08:13:54;33.70;33.30
8067;DHT22;4076;48.076;9.118;2024-03-22T08:16:27;34.40;32.70
8067;DHT22;4076;48.076;9.118;2024-03-22T08:18:52;35.20;32.70
8067;DHT22;4076;48.076;9.118;2024-03-22T08:21:18;35.50;32.40
8067;DHT22;4076;48.076;9.118;2024-03-22T08:23:43;35.60;32.40
8067;DHT22;4076;48.076;9.118;2024-03-22T08:26:09;35.60;32.70
8067;DHT22;4076;48.076;9.118;2024-03-22T08:28:34;36.00;32.70
8067;DHT22;4076;48.076;9.118;2024-03-22T08:31:06;36.30;32.10
8067;DHT22;4076;48.076;9.118;2024-03-22T08:33:32;36.50;31.60
8067;DHT22;4076;48.076;9.118;2024-03-22T08:35:57;36.70;31.40
8067;DHT22;4076;48.076;9.118;2024-03-22T08:38:24;36.80;31.50
8067;DHT22;4076;48.076;9.118;2024-03-22T08:40:50;36.80;31.70
8067;DHT22;4076;48.076;9.118;2024-03-22T08:43:15;36.80;31.60
8067;DHT22;4076;48.076;9.118;2024-03-22T08:45:41;37.10;31.90
8067;DHT22;4076;48.076;9.118;2024-03-22T08:48:07;37.70;32.30
8067;DHT22;4076;48.076;9.118;2024-03-22T08:50:33;38.20;34.60
8067;DHT22;4076;48.076;9.118;2024-03-22T08:52:58;38.50;35.50
8067;DHT22;4076;48.076;9.118;2024-03-22T08:55:24;38.30;35.00
8067;DHT22;4076;48.076;9.118;2024-03-22T08:57:49;38.20;35.20
8067;DHT22;4076;48.076;9.118;2024-03-22T09:00:16;38.10;35.00
8067;DHT22;4076;48.076;9.118;2024-03-22T09:02:42;38.30;34.50
8067;DHT22;4076;48.076;9.118;2024-03-22T09:05:07;37.20;34.50
8067;DHT22;4076;48.076;9.118;2024-03-22T09:07:34;37.00;34.80
8067;DHT22;4076;48.076;9.118;2024-03-22T09:09:59;37.30;34.60
8067;DHT22;4076;48.076;9.118;2024-03-22T09:12:25;38.30;32.10
8067;DHT22;4076;48.076;9.118;2024-03-22T09:14:50;39.00;30.00
8067;DHT22;4076;48.076;9.118;2024-03-22T09:17:16;39.90;28.80
8067;DHT22;4076;48.076;9.118;2024-03-22T09:19:41;40.00;28.40
8067;DHT22;4076;48.076;9.118;2024-03-22T09:22:06;40.40;27.90
8067;DHT22;4076;48.076;9.118;2024-03-22T09:24:32;41.00;27.70
8067;DHT22;4076;48.076;9.118;2024-03-22T09:26:58;41.50;27.10
8067;DHT22;4076;48.076;9.118;2024-03-22T09:29:24;42.10;26.60
8067;DHT22;4076;48.076;9.118;2024-03-22T09:31:49;42.40;26.50
8067;DHT22;4076;48.076;9.118;2024-03-22T09:34:16;42.60;26.40
8067;DHT22;4076;48.076;9.118;2024-03-22T09:36:42;42.60;26.30
8067;DHT22;4076;48.076;9.118;2024-03-22T09:39:07;42.50;26.50
8067;DHT22;4076;48.076;9.118;2024-03-22T09:41:40;42.40;26.80
8067;DHT22;4076;48.076;9.118;2024-03-22T09:44:13;42.50;26.60
8067;DHT22;4076;48.076;9.118;2024-03-22T09:46:42;42.80;26.30
8067;DHT22;4076;48.076;9.118;2024-03-22T09:49:10;42.70;26.40
8067;DHT22;4076;48.076;9.118;2024-03-22T09:51:37;42.20;26.40
8067;DHT22;4076;48.076;9.118;2024-03-22T09:54:03;42.00;26.60
8067;DHT22;4076;48.076;9.118;2024-03-22T09:56:30;41.80;26.60
8067;DHT22;4076;48.076;9.118;2024-03-22T09:58:57;41.50;26.60
8067;DHT22;4076;48.076;9.118;2024-03-22T10:01:23;41.20;26.70
8067;DHT22;4076;48.076;9.118;2024-03-22T10:03:53;40.50;26.80
8067;DHT22;4076;48.076;9.118;2024-03-22T10:06:19;38.90;26.90
8067;DHT22;4076;48.076;9.118;2024-03-22T10:08:45;36.70;27.60
8067;DHT22;4076;48.076;9.118;2024-03-22T10:11:11;34.50;26.70
8067;DHT22;4076;48.076;9.118;2024-03-22T10:13:36;32.70;25.70
8067;DHT22;4076;48.076;9.118;2024-03-22T10:16:02;31.10;26.90
8067;DHT22;4076;48.076;9.118;2024-03-22T10:18:28;30.00;27.50
8067;DHT22;4076;48.076;9.118;2024-03-22T10:21:06;29.30;29.00
8067;DHT22;4076;48.076;9.118;2024-03-22T10:23:32;28.80;30.40
8067;DHT22;4076;48.076;9.118;2024-03-22T10:25:58;28.40;30.80
8067;DHT22;4076;48.076;9.118;2024-03-22T10:28:25;27.90;30.20
8067;DHT22;4076;48.076;9.118;2024-03-22T10:30:51;27.40;30.20
8067;DHT22;4076;48.076;9.118;2024-03-22T10:33:19;26.80;30.50
8067;DHT22;4076;48.076;9.118;2024-03-22T10:35:46;26.40;30.80
8067;DHT22;4076;48.076;9.118;2024-03-22T10:38:12;26.10;31.70
8067;DHT22;4076;48.076;9.118;2024-03-22T10:40:39;26.10;31.90
8067;DHT22;4076;48.076;9.118;2024-03-22T10:43:05;26.10;32.10
8067;DHT22;4076;48.076;9.118;2024-03-22T10:45:32;26.00;32.40
8067;DHT22;4076;48.076;9.118;2024-03-22T10:47:58;25.90;32.60
8067;DHT22;4076;48.076;9.118;2024-03-22T10:50:28;26.00;32.70
8067;DHT22;4076;48.076;9.118;2024-03-22T10:52:59;26.10;33.20
8067;DHT22;4076;48.076;9.118;2024-03-22T10:55:30;26.00;33.00
8067;DHT22;4076;48.076;9.118;2024-03-22T10:57:57;26.00;33.10
8067;DHT22;4076;48.076;9.118;2024-03-22T11:00:30;26.00;32.60
8067;DHT22;4076;48.076;9.118;2024-03-22T11:02:56;25.80;33.10
8067;DHT22;4076;48.076;9.118;2024-03-22T11:05:22;25.30;32.00
8067;DHT22;4076;48.076;9.118;2024-03-22T11:07:47;25.10;33.20
8067;DHT22;4076;48.076;9.118;2024-03-22T11:10:14;24.90;33.70
8067;DHT22;4076;48.076;9.118;2024-03-22T11:12:40;24.70;34.40
8067;DHT22;4076;48.076;9.118;2024-03-22T11:15:06;24.60;34.50
8067;DHT22;4076;48.076;9.118;2024-03-22T11:17:32;24.50;35.00
8067;DHT22;4076;48.076;9.118;2024-03-22T11:19:57;24.50;36.10
8067;DHT22;4076;48.076;9.118;2024-03-22T11:22:25;24.50;37.20
8067;DHT22;4076;48.076;9.118;2024-03-22T11:24:51;24.20;38.90
8067;DHT22;4076;48.076;9.118;2024-03-22T11:27:17;23.80;39.60
8067;DHT22;4076;48.076;9.118;2024-03-22T11:29:42;23.50;40.30
8067;DHT22;4076;48.076;9.118;2024-03-22T11:32:09;23.20;41.10
8067;DHT22;4076;48.076;9.118;2024-03-22T11:34:36;23.10;41.30
8067;DHT22;4076;48.076;9.118;2024-03-22T11:37:02;23.00;41.80
8067;DHT22;4076;48.076;9.118;2024-03-22T11:39:28;22.90;41.20
8067;DHT22;4076;48.076;9.118;2024-03-22T11:41:54;22.60;41.80
8067;DHT22;4076;48.076;9.118;2024-03-22T11:44:21;22.10;41.40
8067;DHT22;4076;48.076;9.118;2024-03-22T11:46:47;21.90;42.20
8067;DHT22;4076;48.076;9.118;2024-03-22T11:49:13;22.00;43.30
8067;DHT22;4076;48.076;9.118;2024-03-22T11:51:40;22.20;43.10
8067;DHT22;4076;48.076;9.118;2024-03-22T11:54:06;22.30;42.40
8067;DHT22;4076;48.076;9.118;2024-03-22T11:56:35;22.30;42.50
8067;DHT22;4076;48.076;9.118;2024-03-22T11:59:01;22.30;42.20
8067;DHT22;4076;48.076;9.118;2024-03-22T12:01:28;22.20;41.30
8067;DHT22;4076;48.076;9.118;2024-03-22T12:03:53;22.00;42.20
8067;DHT22;4076;48.076;9.118;2024-03-22T12:06:20;22.00;42.70
8067;DHT22;4076;48.076;9.118;2024-03-22T12:08:46;22.00;42.80
8067;DHT22;4076;48.076;9.118;2024-03-22T12:11:13;22.00;43.00
8067;DHT22;4076;48.076;9.118;2024-03-22T12:13:39;21.80;42.30
8067;DHT22;4076;48.076;9.118;2024-03-22T12:16:05;21.40;42.70
8067;DHT22;4076;48.076;9.118;2024-03-22T12:18:31;21.40;43.80
8067;DHT22;4076;48.076;9.118;2024-03-22T12:20:57;21.50;44.30
8067;DHT22;4076;48.076;9.118;2024-03-22T12:23:23;21.60;44.10
8067;DHT22;4076;48.076;9.118;2024-03-22T12:25:50;21.40;43.30
8067;DHT22;4076;48.076;9.118;2024-03-22T12:28:16;21.20;43.60
8067;DHT22;4076;48.076;9.118;2024-03-22T12:30:42;20.80;43.60
8067;DHT22;4076;48.076;9.118;2024-03-22T12:33:08;20.50;43.90
8067;DHT22;4076;48.076;9.118;2024-03-22T12:35:36;20.50;44.60
8067;DHT22;4076;48.076;9.118;2024-03-22T12:38:02;20.30;44.90
8067;DHT22;4076;48.076;9.118;2024-03-22T12:40:29;20.30;45.00
8067;DHT22;4076;48.076;9.118;2024-03-22T12:42:54;20.30;45.60
8067;DHT22;4076;48.076;9.118;2024-03-22T12:45:20;20.60;45.60
8067;DHT22;4076;48.076;9.118;2024-03-22T12:47:45;21.00;44.90
8067;DHT22;4076;48.076;9.118;2024-03-22T12:50:11;21.00;44.60
8067;DHT22;4076;48.076;9.118;2024-03-22T12:52:38;20.80;44.60
8067;DHT22;4076;48.076;9.118;2024-03-22T12:55:04;20.80;44.90
8067;DHT22;4076;48.076;9.118;2024-03-22T12:57:31;20.90;45.00
8067;DHT22;4076;48.076;9.118;2024-03-22T12:59:57;21.10;45.20
8067;DHT22;4076;48.076;9.118;2024-03-22T13:02:23;21.20;44.70
8067;DHT22;4076;48.076;9.118;2024-03-22T13:04:51;21.20;43.30
8067;DHT22;4076;48.076;9.118;2024-03-22T13:07:19;20.90;44.00
8067;DHT22;4076;48.076;9.118;2024-03-22T13:09:44;20.70;44.40
8067;DHT22;4076;48.076;9.118;2024-03-22T13:12:10;20.80;45.20
8067;DHT22;4076;48.076;9.118;2024-03-22T13:14:35;20.70;44.50
8067;DHT22;4076;48.076;9.118;2024-03-22T13:17:01;20.40;44.70
8067;DHT22;4076;48.076;9.118;2024-03-22T13:19:27;20.10;44.70
8067;DHT22;4076;48.076;9.118;2024-03-22T13:21:52;19.70;45.10
8067;DHT22;4076;48.076;9.118;2024-03-22T13:24:18;19.60;46.30
8067;DHT22;4076;48.076;9.118;2024-03-22T13:26:44;19.50;46.40
8067;DHT22;4076;48.076;9.118;2024-03-22T13:29:10;19.40;46.80
8067;DHT22;4076;48.076;9.118;2024-03-22T13:31:36;19.40;46.30
8067;DHT22;4076;48.076;9.118;2024-03-22T13:34:01;19.20;46.70
8067;DHT22;4076;48.076;9.118;2024-03-22T13:36:27;19.10;46.60
8067;DHT22;4076;48.076;9.118;2024-03-22T13:38:54;19.10;47.40
8067;DHT22;4076;48.076;9.118;2024-03-22T13:41:20;19.20;47.80
8067;DHT22;4076;48.076;9.118;2024-03-22T13:43:45;19.60;47.60
8067;DHT22;4076;48.076;9.118;2024-03-22T13:46:11;19.90;47.40
8067;DHT22;4076;48.076;9.118;2024-03-22T13:48:40;20.10;46.60
8067;DHT22;4076;48.076;9.118;2024-03-22T13:51:05;20.10;46.20
8067;DHT22;4076;48.076;9.118;2024-03-22T13:53:31;20.00;45.50
8067;DHT22;4076;48.076;9.118;2024-03-22T13:55:56;19.80;46.30
8067;DHT22;4076;48.076;9.118;2024-03-22T13:58:22;19.80;46.70
8067;DHT22;4076;48.076;9.118;2024-03-22T14:00:48;19.80;47.30
8067;DHT22;4076;48.076;9.118;2024-03-22T14:03:13;19.80;47.00
8067;DHT22;4076;48.076;9.118;2024-03-22T14:05:39;19.80;46.10
8067;DHT22;4076;48.076;9.118;2024-03-22T14:08:05;19.70;46.40
8067;DHT22;4076;48.076;9.118;2024-03-22T14:10:31;19.50;46.10
8067;DHT22;4076;48.076;9.118;2024-03-22T14:12:57;19.40;46.60
8067;DHT22;4076;48.076;9.118;2024-03-22T14:15:23;19.30;47.00
8067;DHT22;4076;48.076;9.118;2024-03-22T14:17:50;19.20;46.50
8067;DHT22;4076;48.076;9.118;2024-03-22T14:20:16;19.10;46.20
8067;DHT22;4076;48.076;9.118;2024-03-22T14:22:42;19.00;47.70
8067;DHT22;4076;48.076;9.118;2024-03-22T14:25:08;18.90;47.30
8067;DHT22;4076;48.076;9.118;2024-03-22T14:27:35;18.90;47.50
8067;DHT22;4076;48.076;9.118;2024-03-22T14:30:01;18.90;47.70
8067;DHT22;4076;48.076;9.118;2024-03-22T14:32:30;18.90;46.60
8067;DHT22;4076;48.076;9.118;2024-03-22T14:34:56;18.90;48.20
8067;DHT22;4076;48.076;9.118;2024-03-22T14:37:21;18.90;47.90
8067;DHT22;4076;48.076;9.118;2024-03-22T14:39:47;19.00;47.60
8067;DHT22;4076;48.076;9.118;2024-03-22T14:42:12;19.10;47.60
8067;DHT22;4076;48.076;9.118;2024-03-22T14:44:38;19.10;46.30
8067;DHT22;4076;48.076;9.118;2024-03-22T14:47:03;19.10;46.80
8067;DHT22;4076;48.076;9.118;2024-03-22T14:49:29;19.00;46.40
8067;DHT22;4076;48.076;9.118;2024-03-22T14:51:54;19.00;46.70
8067;DHT22;4076;48.076;9.118;2024-03-22T14:54:20;19.00;47.00
8067;DHT22;4076;48.076;9.118;2024-03-22T14:56:45;19.10;46.70
8067;DHT22;4076;48.076;9.118;2024-03-22T14:59:11;19.00;45.30
8067;DHT22;4076;48.076;9.118;2024-03-22T15:01:37;18.80;44.70
8067;DHT22;4076;48.076;9.118;2024-03-22T15:04:03;18.80;46.30
8067;DHT22;4076;48.076;9.118;2024-03-22T15:06:28;18.70;45.30
8067;DHT22;4076;48.076;9.118;2024-03-22T15:08:56;18.70;45.60
8067;DHT22;4076;48.076;9.118;2024-03-22T15:11:22;18.60;45.20
8067;DHT22;4076;48.076;9.118;2024-03-22T15:13:48;18.50;46.60
8067;DHT22;4076;48.076;9.118;2024-03-22T15:16:13;18.60;47.00
8067;DHT22;4076;48.076;9.118;2024-03-22T15:18:40;18.60;46.30
8067;DHT22;4076;48.076;9.118;2024-03-22T15:21:08;18.60;46.10
8067;DHT22;4076;48.076;9.118;2024-03-22T15:23:34;18.60;46.50
8067;DHT22;4076;48.076;9.118;2024-03-22T15:26:00;18.50;46.60
8067;DHT22;4076;48.076;9.118;2024-03-22T15:28:26;18.50;46.30
8067;DHT22;4076;48.076;9.118;2024-03-22T15:30:52;18.40;46.40
8067;DHT22;4076;48.076;9.118;2024-03-22T15:33:18;18.40;46.70
8067;DHT22;4076;48.076;9.118;2024-03-22T15:35:43;18.50;46.90
8067;DHT22;4076;48.076;9.118;2024-03-22T15:38:15;18.50;47.50
8067;DHT22;4076;48.076;9.118;2024-03-22T15:40:41;18.60;46.40
8067;DHT22;4076;48.076;9.118;2024-03-22T15:43:08;18.60;46.50
8067;DHT22;4076;48.076;9.118;2024-03-22T15:45:34;18.60;46.60
8067;DHT22;4076;48.076;9.118;2024-03-22T15:48:03;18.60;46.40
8067;DHT22;4076;48.076;9.118;2024-03-22T15:50:28;18.60;45.90
8067;DHT22;4076;48.076;9.118;2024-03-22T15:52:54;18.60;45.60
8067;DHT22;4076;48.076;9.118;2024-03-22T15:55:19;18.60;45.10
8067;DHT22;4076;48.076;9.118;2024-03-22T15:57:45;18.60;45.10
8067;DHT22;4076;48.076;9.118;2024-03-22T16:00:11;18.60;45.10